Time;durP1;ratioP1;P1;durP2;ratioP2;P2;SDS_P1;SDS_P2;PMS_P1;PMS_P2;Temp;Humidity;BMP_temperature;BMP_pressure;BME280_temperature;BME280_humidity;BME280_pressure;Samples;Min_cycle;Max_cycle;Signal;HPM_P1;HPM_P2
2022/10/01 00:00:47;;;;;;;3.42;1.40;;;13.50;98.90;;;13.64;93.83;100199.22;5246186;28;20541;-75
2022/10/01 00:03:21;;;;;;;2.88;1.63;;;13.50;99.00;;;13.62;93.57;100185.19;5246387;28;20502;-74
2022/10/01 00:06:00;;;;;;;2.88;1.75;;;13.50;98.90;;;13.61;93.87;100186.06;5246323;28;20533;-75
2022/10/01 00:08:33;;;;;;;5.50;2.22;;;13.40;99.00;;;13.56;94.30;100182.50;5227767;28;20070;-73
2022/10/01 00:11:11;;;;;;;5.53;1.98;;;13.40;99.10;;;13.57;94.17;100172.06;5246132;28;20044;-75
2022/10/01 00:13:45;;;;;;;2.30;1.50;;;13.40;99.10;;;13.60;94.29;100173.84;5246126;28;20135;-74
2022/10/01 00:16:21;;;;;;;2.78;1.80;;;13.50;99.10;;;13.58;94.18;100165.09;5246050;28;20033;-74
2022/10/01 00:18:53;;;;;;;3.15;1.63;;;13.40;99.10;;;13.61;94.04;100161.63;5227675;28;20049;-75
2022/10/01 00:21:28;;;;;;;2.65;1.70;;;13.50;99.10;;;13.60;94.31;100158.13;5245622;28;20054;-75
2022/10/01 00:24:04;;;;;;;2.50;1.80;;;13.50;99.20;;;13.60;94.56;100160.75;5246087;28;20045;-74
2022/10/01 00:26:37;;;;;;;4.13;1.90;;;13.50;99.20;;;13.62;94.27;100148.53;5228057;28;20060;-75
2022/10/01 00:29:13;;;;;;;2.63;1.55;;;13.50;99.20;;;13.63;94.38;100146.81;5227516;28;20045;-75
2022/10/01 00:31:46;;;;;;;4.07;1.70;;;13.50;99.20;;;13.65;94.14;100145.97;5245629;28;20493;-74
2022/10/01 00:34:18;;;;;;;4.22;1.80;;;13.50;99.20;;;13.63;94.61;100137.22;5227993;28;20143;-75
2022/10/01 00:36:50;;;;;;;1.83;1.48;;;13.50;99.20;;;13.63;94.81;100141.56;5245955;28;20044;-74
2022/10/01 00:39:22;;;;;;;2.30;1.65;;;13.50;99.30;;;13.69;94.45;100137.31;5245218;28;20044;-74
2022/10/01 00:41:54;;;;;;;3.15;1.75;;;13.50;99.30;;;13.71;94.47;100137.31;5245394;28;20113;-75
2022/10/01 00:44:37;;;;;;;2.42;1.60;;;13.60;99.30;;;13.69;95.14;100142.53;5245726;28;20508;-74
2022/10/01 00:47:21;;;;;;;3.90;2.05;;;13.50;99.50;;;13.68;96.63;100145.13;5245540;28;20051;-74
2022/10/01 00:49:59;;;;;;;2.28;1.67;;;13.50;99.90;;;13.68;97.59;100135.53;5245213;28;20040;-74
2022/10/01 00:52:35;;;;;;;3.63;1.83;;;13.60;99.90;;;13.62;99.02;100124.97;5245595;28;20049;-73
2022/10/01 00:55:12;;;;;;;3.42;1.45;;;13.50;99.90;;;13.64;100.00;100130.25;5245600;28;20528;-74
2022/10/01 00:57:45;;;;;;;3.08;1.67;;;13.50;99.90;;;13.59;100.00;100124.94;5245676;28;20068;-75
2022/10/01 01:00:19;;;;;;;2.97;1.70;;;13.50;99.90;;;13.58;100.00;100128.44;5244898;28;20517;-73
2022/10/01 01:02:51;;;;;;;3.13;2.15;;;13.50;99.90;;;13.57;100.00;100122.31;5245170;28;20508;-74
2022/10/01 01:05:24;;;;;;;2.97;1.67;;;13.40;99.90;;;13.54;100.00;100122.25;5245695;28;20071;-75
2022/10/01 01:07:57;;;;;;;2.60;1.40;;;13.40;99.90;;;13.51;100.00;100111.78;5227150;28;20053;-74
2022/10/01 01:10:36;;;;;;;3.30;2.15;;;13.40;99.90;;;13.49;100.00;100102.13;5245267;28;20390;-74
2022/10/01 01:13:17;;;;;;;3.53;1.70;;;13.40;99.90;;;13.45;100.00;100096.00;5245287;28;20040;-75
2022/10/01 01:15:59;;;;;;;2.47;1.52;;;13.30;99.90;;;13.41;100.00;100094.19;5245457;28;20048;-74
2022/10/01 01:18:41;;;;;;;2.55;1.80;;;13.30;99.90;;;13.38;100.00;100094.16;5244851;28;20048;-74
2022/10/01 01:21:20;;;;;;;3.72;1.77;;;13.30;99.90;;;13.34;100.00;100094.97;5245141;28;20045;-74
2022/10/01 01:24:43;;;;;;;3.50;2.00;;;13.20;99.90;;;13.30;100.00;100087.94;5244949;28;20041;-74
2022/10/01 01:27:26;;;;;;;4.20;2.15;;;13.20;99.90;;;13.26;100.00;100089.66;5227386;28;20059;-74
2022/10/01 01:30:05;;;;;;;4.10;2.22;;;13.20;99.90;;;13.25;100.00;100077.41;5244536;28;20520;-74
2022/10/01 01:32:46;;;;;;;3.03;1.90;;;13.10;99.90;;;13.23;100.00;100079.13;5244999;28;20528;-74
2022/10/01 01:35:24;;;;;;;2.80;1.63;;;13.10;99.90;;;13.20;100.00;100076.47;5245083;28;20044;-75
2022/10/01 01:38:02;;;;;;;2.50;1.60;;;13.10;99.90;;;13.18;100.00;100072.94;5245069;28;20075;-74
2022/10/01 01:40:37;;;;;;;3.10;2.35;;;13.10;99.90;;;13.17;100.00;100060.72;5244719;28;20394;-73
2022/10/01 01:43:19;;;;;;;2.47;1.67;;;13.10;99.90;;;13.08;100.00;100050.13;5244939;28;20511;-74
2022/10/01 01:45:54;;;;;;;2.40;2.00;;;13.00;99.90;;;13.02;100.00;100048.28;5244946;28;20445;-74
2022/10/01 01:48:28;;;;;;;4.30;2.00;;;13.00;99.90;;;13.04;100.00;100027.41;5244773;28;20052;-74
2022/10/01 01:51:14;;;;;;;3.90;2.10;;;13.00;99.90;;;13.01;100.00;100030.84;5244649;28;20509;-74
2022/10/01 01:53:46;;;;;;;2.28;1.70;;;13.00;99.90;;;12.98;100.00;100022.09;5244788;28;20041;-74
2022/10/01 01:56:18;;;;;;;2.90;1.83;;;12.90;99.90;;;12.94;100.00;100007.22;5245026;28;20044;-75
2022/10/01 01:58:52;;;;;;;2.75;1.70;;;12.90;99.90;;;12.92;100.00;99998.47;5245775;28;20040;-73
2022/10/01 02:01:34;;;;;;;;;;;12.90;99.90;;;12.86;100.00;99983.59;5249590;28;20055;-73
2022/10/01 02:04:13;;;;;;;4.43;2.00;;;12.80;99.90;;;12.88;100.00;99988.81;5248404;28;19920;-73
2022/10/01 02:07:06;;;;;;;2.13;1.60;;;12.80;99.90;;;12.84;100.00;99973.94;5230968;28;20056;-73
2022/10/01 02:09:51;;;;;;;2.22;1.70;;;12.80;99.90;;;12.76;100.00;99974.72;5248624;28;20055;-74
2022/10/01 02:12:37;;;;;;;4.53;1.92;;;12.70;99.90;;;12.76;100.00;99966.88;5264094;22;20077;-84
2022/10/01 02:15:20;;;;;;;3.55;1.90;;;12.70;99.90;;;12.71;100.00;99958.13;5253862;28;20044;-84
2022/10/01 02:18:02;;;;;;;4.38;2.65;;;12.70;99.90;;;12.67;100.00;99955.44;5254390;28;20394;-84
2022/10/01 02:20:38;;;;;;;2.25;1.60;;;12.60;99.90;;;12.64;100.00;99937.94;5253044;28;20040;-84
2022/10/01 02:23:16;;;;;;;3.35;2.20;;;12.60;99.90;;;12.59;100.00;99926.59;5253814;28;20044;-84
2022/10/01 02:25:54;;;;;;;4.28;2.08;;;12.60;99.90;;;12.53;100.00;99921.28;5252987;28;20048;-84
2022/10/01 02:28:26;;;;;;;4.60;2.40;;;12.50;99.90;;;12.50;100.00;99913.38;5252549;28;20052;-84
2022/10/01 02:31:01;;;;;;;4.57;1.92;;;12.50;99.90;;;12.47;100.00;99906.38;5253424;28;20059;-85
2022/10/01 02:33:36;;;;;;;3.20;1.92;;;12.50;99.90;;;12.45;100.00;99892.44;5253193;28;20048;-84
2022/10/01 02:36:11;;;;;;;2.80;1.90;;;12.40;99.90;;;12.40;100.00;99888.88;5253703;28;20127;-86
2022/10/01 02:38:45;;;;;;;3.80;2.10;;;12.40;99.90;;;12.39;100.00;99894.09;5271183;28;20045;-85
2022/10/01 02:41:25;;;;;;;3.58;2.03;;;12.40;99.90;;;12.37;100.00;99887.94;5253357;28;20045;-84
2022/10/01 02:44:01;;;;;;;2.78;1.85;;;12.30;99.90;;;12.37;100.00;99887.94;5253950;28;20067;-84
2022/10/01 02:46:41;;;;;;;3.60;2.10;;;12.30;99.90;;;12.33;100.00;99886.16;5254336;28;20048;-84
2022/10/01 02:49:14;;;;;;;4.22;1.98;;;12.30;99.90;;;12.32;100.00;99864.34;5252909;28;20510;-86
2022/10/01 02:51:56;;;;;;;3.47;1.88;;;12.30;99.90;;;12.36;100.00;99865.28;5252365;28;20055;-84
2022/10/01 02:54:31;;;;;;;;;;;12.30;99.90;;;12.31;100.00;99870.44;5252401;28;20055;-85
2022/10/01 02:59:56;;;;;;;5.13;1.90;;;12.30;99.90;;;12.36;100.00;99884.44;5253790;28;20044;-84
2022/10/01 03:02:31;;;;;;;3.90;2.08;;;12.30;99.90;;;12.32;100.00;99874.81;5252765;28;20137;-84
2022/10/01 03:05:07;;;;;;;3.25;1.83;;;12.30;99.90;;;12.34;100.00;99885.31;5252741;28;20048;-85
2022/10/01 03:07:39;;;;;;;3.28;2.00;;;12.30;99.90;;;12.33;100.00;99889.66;5251978;28;20505;-84
2022/10/01 03:10:13;;;;;;;3.38;1.92;;;12.30;99.90;;;12.36;100.00;99881.84;5251446;28;20043;-84
2022/10/01 03:12:46;;;;;;;3.08;1.90;;;12.30;99.90;;;12.34;100.00;99877.47;5251969;28;20055;-85
2022/10/01 03:15:20;;;;;;;2.95;2.10;;;12.30;99.90;;;12.31;100.00;99878.28;5251586;28;20048;-84
2022/10/01 03:17:52;;;;;;;2.38;1.67;;;12.30;99.90;;;12.33;100.00;99880.94;5253469;28;20059;-84
2022/10/01 03:20:26;;;;;;;3.25;2.00;;;12.30;99.90;;;12.31;100.00;99873.06;5250635;28;20049;-83
2022/10/01 03:22:58;;;;;;;3.33;1.60;;;12.30;99.90;;;12.24;100.00;99860.75;5251335;28;20075;-83
2022/10/01 03:25:30;;;;;;;3.10;1.95;;;12.30;99.90;;;12.27;100.00;99859.94;5252336;28;20055;-83
2022/10/01 03:28:02;;;;;;;4.05;1.77;;;12.30;99.90;;;12.26;100.00;99866.91;5250518;28;20063;-84
2022/10/01 03:30:34;;;;;;;4.10;2.25;;;12.30;99.90;;;12.29;100.00;99866.06;5250705;28;20055;-84
2022/10/01 03:33:06;;;;;;;3.13;1.77;;;12.30;99.90;;;12.31;100.00;99872.19;5250796;28;20044;-84
2022/10/01 03:35:39;;;;;;;2.53;1.80;;;12.30;99.90;;;12.34;100.00;99872.25;5250735;28;20522;-84
2022/10/01 03:38:12;;;;;;;3.35;1.77;;;12.30;99.90;;;12.33;100.00;99854.81;5250399;28;20055;-82
2022/10/01 03:40:45;;;;;;;2.17;1.77;;;12.30;99.90;;;12.32;100.00;99868.69;5250389;28;20044;-84
2022/10/01 03:43:17;;;;;;;3.53;1.90;;;12.30;99.90;;;12.32;100.00;99858.25;5250630;28;20048;-83
2022/10/01 03:45:49;;;;;;;2.05;1.63;;;12.30;99.90;;;12.34;100.00;99848.72;5250745;28;20060;-82
2022/10/01 03:48:21;;;;;;;2.55;1.60;;;12.30;99.90;;;12.34;100.00;99856.56;5249791;28;20048;-84
2022/10/01 03:50:56;;;;;;;1.85;1.48;;;12.30;99.90;;;12.36;100.00;99857.44;5249066;28;20059;-82
2022/10/01 03:53:30;;;;;;;2.30;1.48;;;12.30;99.90;;;12.37;100.00;99848.75;5251392;28;20037;-83
2022/10/01 03:56:03;;;;;;;2.03;1.42;;;12.30;99.90;;;12.41;100.00;99842.69;5249916;28;20044;-84
2022/10/01 03:58:35;;;;;;;3.30;1.50;;;12.30;99.90;;;12.39;100.00;99839.22;5249146;28;20052;-85
2022/10/01 04:01:07;;;;;;;3.28;1.60;;;12.30;99.90;;;12.38;100.00;99833.06;5249575;28;20059;-84
2022/10/01 04:03:40;;;;;;;1.95;1.20;;;12.30;99.90;;;12.39;100.00;99840.06;5249622;28;20049;-83
2022/10/01 04:06:13;;;;;;;3.03;1.50;;;12.30;99.90;;;12.39;100.00;99832.25;5248476;28;20552;-83
2022/10/01 04:08:46;;;;;;;1.23;1.10;;;12.30;99.90;;;12.41;100.00;99842.69;5250395;28;20273;-84
2022/10/01 04:11:18;;;;;;;2.08;1.25;;;12.40;99.90;;;12.42;100.00;99839.22;5250240;28;20036;-84
2022/10/01 04:13:50;;;;;;;1.60;1.50;;;12.40;99.90;;;12.45;100.00;99828.78;5249223;28;20403;-84
2022/10/01 04:16:23;;;;;;;1.35;1.08;;;12.40;99.90;;;12.42;100.00;99828.78;5265999;28;20139;-84
2022/10/01 04:18:55;;;;;;;1.25;1.00;;;12.40;99.90;;;12.42;100.00;99828.78;5249024;28;20049;-85
2022/10/01 04:21:28;;;;;;;1.67;1.30;;;12.30;99.90;;;12.45;100.00;99819.25;5248358;28;20461;-83
2022/10/01 04:24:03;;;;;;;3.63;1.10;;;12.40;99.90;;;12.46;100.00;99810.53;5249817;28;20071;-84
2022/10/01 04:26:36;;;;;;;1.15;1.00;;;12.40;99.90;;;12.46;100.00;99818.38;5248302;28;20097;-84
2022/10/01 04:29:08;;;;;;;1.75;1.00;;;12.50;99.90;;;12.52;100.00;99814.06;5249515;28;20055;-84
2022/10/01 04:31:40;;;;;;;1.58;0.80;;;12.50;99.90;;;12.51;100.00;99818.41;5251489;28;20044;-85
2022/10/01 04:34:12;;;;;;;1.35;0.90;;;12.50;99.90;;;12.53;100.00;99815.84;5251653;28;20091;-84
2022/10/01 04:36:45;;;;;;;0.77;0.77;;;12.50;99.90;;;12.60;100.00;99818.53;5251700;28;20045;-84
2022/10/01 04:39:18;;;;;;;1.30;1.00;;;12.50;99.90;;;12.63;100.00;99792.41;5249936;28;20422;-84
2022/10/01 04:41:50;;;;;;;0.85;0.85;;;12.60;99.90;;;12.62;100.00;99769.75;5250074;28;20453;-84
2022/10/01 04:44:22;;;;;;;1.10;0.68;;;12.60;99.90;;;12.62;100.00;99764.50;5250227;28;20049;-83
2022/10/01 04:46:54;;;;;;;1.52;0.70;;;12.60;99.90;;;12.66;100.00;99734.94;5251554;28;20056;-84
2022/10/01 04:49:26;;;;;;;1.23;0.82;;;12.60;99.90;;;12.62;100.00;99669.53;5252616;28;20053;-84
2022/10/01 04:52:00;;;;;;;2.60;0.70;;;12.60;99.90;;;12.59;100.00;99712.22;5252767;28;20048;-83
2022/10/01 04:54:32;;;;;;;0.52;0.50;;;12.50;99.90;;;12.56;100.00;99716.53;5253623;28;20052;-84
2022/10/01 04:57:04;;;;;;;0.60;0.60;;;12.50;99.90;;;12.55;100.00;99720.88;5253602;28;20045;-85
2022/10/01 04:59:36;;;;;;;1.05;0.70;;;12.50;99.90;;;12.58;100.00;99720.03;5252773;28;20048;-83
2022/10/01 05:02:08;;;;;;;0.50;0.50;;;12.50;99.90;;;12.55;100.00;99749.63;5253445;28;20197;-85
2022/10/01 05:04:40;;;;;;;0.47;0.40;;;12.50;99.90;;;12.58;100.00;99760.09;5253234;28;20068;-84
2022/10/01 05:07:14;;;;;;;1.58;0.50;;;12.50;99.90;;;12.64;100.00;99770.63;5252880;28;20068;-84
2022/10/01 05:09:46;;;;;;;0.43;0.43;;;12.60;99.90;;;12.64;100.00;99785.44;5253933;28;20055;-84
2022/10/01 05:12:18;;;;;;;0.52;0.40;;;12.60;99.90;;;12.68;100.00;99767.19;5252572;28;20146;-84
2022/10/01 05:14:50;;;;;;;0.70;0.43;;;12.60;99.90;;;12.76;100.00;99769.88;5252813;28;20052;-84
2022/10/01 05:17:23;;;;;;;0.57;0.40;;;12.70;99.90;;;12.80;100.00;99776.03;5254966;28;20052;-83
2022/10/01 05:19:55;;;;;;;0.50;0.30;;;12.70;99.90;;;12.76;100.00;99768.13;5270174;28;20553;-83
2022/10/01 05:22:29;;;;;;;0.88;0.88;;;12.60;99.90;;;12.81;100.00;99772.53;5250972;28;20434;-84
2022/10/01 05:25:01;;;;;;;0.63;0.63;;;12.70;99.90;;;12.81;100.00;99769.94;5249417;28;20422;-85
2022/10/01 05:27:36;;;;;;;0.70;0.70;;;12.70;99.90;;;12.79;100.00;99766.44;5249073;28;20418;-84
2022/10/01 05:30:11;;;;;;;0.30;0.30;;;12.70;99.90;;;12.80;100.00;99762.97;5249419;28;20514;-84
2022/10/01 05:32:43;;;;;;;0.20;0.20;;;12.70;99.90;;;12.79;100.00;99756.84;5249560;28;20525;-84
2022/10/01 05:35:15;;;;;;;0.25;0.25;;;12.70;99.90;;;12.86;100.00;99749.94;5252898;28;20044;-84
2022/10/01 05:37:52;;;;;;;0.30;0.30;;;12.70;99.90;;;12.87;100.00;99749.94;5252889;28;20072;-85
2022/10/01 05:40:26;;;;;;;0.28;0.20;;;12.70;99.90;;;12.91;100.00;99756.06;5253457;28;20048;-84
2022/10/01 05:43:00;;;;;;;0.85;0.20;;;12.80;99.90;;;12.92;100.00;99753.47;5253130;28;20058;-85
2022/10/01 05:45:33;;;;;;;0.30;0.30;;;12.80;99.90;;;12.89;100.00;99757.78;5252674;28;20067;-84
2022/10/01 05:48:07;;;;;;;0.30;0.30;;;12.80;99.90;;;12.87;100.00;99752.56;5253027;28;20048;-84
2022/10/01 05:50:41;;;;;;;1.00;0.80;;;12.80;99.90;;;12.86;100.00;99757.78;5252151;28;20442;-84
2022/10/01 05:53:14;;;;;;;0.60;0.30;;;12.80;99.90;;;12.88;100.00;99761.28;5251933;28;20057;-85
2022/10/01 05:55:46;;;;;;;0.55;0.40;;;12.80;99.90;;;12.92;100.00;99760.47;5253131;28;20044;-84
2022/10/01 05:58:19;;;;;;;0.30;0.30;;;12.80;99.90;;;12.88;100.00;99762.16;5255818;28;20040;-83
2022/10/01 06:00:51;;;;;;;0.75;0.35;;;12.80;99.90;;;12.94;100.00;99762.22;5255155;28;20044;-83
2022/10/01 06:03:23;;;;;;;0.88;0.30;;;12.90;99.90;;;12.97;100.00;99779.66;5256847;28;20106;-83
2022/10/01 06:05:55;;;;;;;0.30;0.30;;;12.90;99.90;;;13.00;100.00;99771.84;5255596;28;20052;-81
2022/10/01 06:08:29;;;;;;;0.43;0.30;;;12.90;99.90;;;13.01;100.00;99773.59;5254523;28;20074;-80
2022/10/01 06:11:01;;;;;;;0.52;0.20;;;12.90;99.90;;;13.03;100.00;99787.56;5251581;28;20044;-81
2022/10/01 06:13:36;;;;;;;1.38;0.40;;;12.90;99.90;;;13.02;100.00;99777.97;5249563;28;20540;-81
2022/10/01 06:16:08;;;;;;;0.35;0.30;;;12.90;99.90;;;13.08;100.00;99780.63;5251418;28;20045;-81
2022/10/01 06:18:40;;;;;;;0.28;0.20;;;13.00;99.90;;;13.06;100.00;99785.00;5249363;28;20048;-81
2022/10/01 06:21:12;;;;;;;0.35;0.35;;;13.00;99.90;;;13.10;100.00;99784.13;5250914;28;20048;-80
2022/10/01 06:23:48;;;;;;;0.20;0.20;;;13.00;99.90;;;13.08;100.00;99795.47;5251124;28;20067;-82
2022/10/01 06:26:21;;;;;;;0.30;0.17;;;13.00;99.90;;;13.09;100.00;99790.22;5254608;28;20110;-81
2022/10/01 06:28:53;;;;;;;0.20;0.20;;;13.00;99.90;;;13.11;100.00;99791.16;5251927;28;20052;-81
2022/10/01 06:31:26;;;;;;;0.38;0.38;;;13.00;99.90;;;13.11;100.00;99799.00;5252467;28;20055;-81
2022/10/01 06:33:58;;;;;;;0.10;0.10;;;13.00;99.90;;;13.12;100.00;99797.25;5250958;28;20139;-82
2022/10/01 06:36:30;;;;;;;0.20;0.20;;;13.00;99.90;;;13.14;100.00;99800.75;5251336;28;20059;-82
2022/10/01 06:39:03;;;;;;;0.30;0.30;;;13.00;99.90;;;13.16;100.00;99799.88;5251373;28;20051;-81
2022/10/01 06:41:35;;;;;;;0.43;0.40;;;13.00;99.90;;;13.18;100.00;99813.88;5267284;28;20023;-82
2022/10/01 06:44:08;;;;;;;0.20;0.20;;;13.10;99.90;;;13.21;100.00;99820.91;5250386;28;20044;-81
2022/10/01 06:46:40;;;;;;;0.50;0.50;;;13.10;99.90;;;13.23;100.00;99819.16;5249835;28;20422;-81
2022/10/01 06:49:12;;;;;;;0.30;0.30;;;13.10;99.90;;;13.22;100.00;99810.44;5250072;28;20059;-81
2022/10/01 06:54:35;;;;;;;0.80;0.30;;;13.10;99.90;;;13.20;100.00;99817.41;5250220;28;20148;-82
2022/10/01 06:57:07;;;;;;;0.17;0.17;;;13.10;99.90;;;13.22;100.00;99820.03;5252172;28;20044;-81
2022/10/01 06:59:39;;;;;;;0.25;0.25;;;13.10;99.90;;;13.23;100.00;99820.03;5250161;28;20055;-81
2022/10/01 07:02:23;;;;;;;0.20;0.20;;;13.10;99.90;;;13.25;100.00;99825.31;5266949;28;20071;-81
2022/10/01 07:04:57;;;;;;;0.40;0.30;;;13.10;99.90;;;13.25;100.00;99826.19;5251787;28;20076;-82
2022/10/01 07:07:30;;;;;;;0.20;0.20;;;13.10;99.90;;;13.27;100.00;99823.56;5252140;28;20053;-81
2022/10/01 07:10:05;;;;;;;0.20;0.20;;;13.10;99.90;;;13.25;100.00;99827.94;5250873;28;20045;-81
2022/10/01 07:12:39;;;;;;;0.20;0.20;;;13.10;99.90;;;13.24;100.00;99827.06;5251333;28;20056;-81
2022/10/01 07:15:11;;;;;;;0.20;0.20;;;13.10;99.90;;;13.24;100.00;99824.44;5250670;28;20055;-83
2022/10/01 07:17:44;;;;;;;1.02;0.35;;;13.10;99.90;;;13.25;100.00;99834.03;5251618;28;20041;-81
2022/10/01 07:20:18;;;;;;;2.35;0.90;;;13.10;99.90;;;13.41;100.00;99831.53;5252366;28;20440;-82
2022/10/01 07:22:56;;;;;;;2.38;2.08;;;13.30;99.90;;;13.50;100.00;99826.38;5249819;28;20048;-82
2022/10/01 07:25:30;;;;;;;1.02;0.85;;;13.40;99.90;;;13.47;100.00;99831.59;5249352;28;20041;-81
2022/10/01 07:28:04;;;;;;;2.17;0.80;;;13.40;99.90;;;13.44;100.00;99839.44;5249760;28;20055;-82
2022/10/01 07:30:39;;;;;;;1.60;0.70;;;13.40;99.90;;;13.40;100.00;99835.03;5250985;28;20045;-80
2022/10/01 07:33:12;;;;;;;0.52;0.50;;;13.40;99.90;;;13.36;100.00;99833.22;5250817;28;20076;-82
2022/10/01 07:35:46;;;;;;;0.68;0.50;;;13.30;99.90;;;13.30;100.00;99832.34;5266264;28;20044;-81
2022/10/01 07:38:18;;;;;;;0.52;0.40;;;13.30;99.90;;;13.23;100.00;99833.13;5250868;28;20051;-80
2022/10/01 07:40:53;;;;;;;0.52;0.52;;;13.20;99.90;;;13.22;100.00;99825.25;5250932;28;20445;-82
2022/10/01 07:43:26;;;;;;;0.50;0.45;;;13.20;99.90;;;13.20;100.00;99833.13;5250217;28;20056;-81
2022/10/01 07:45:58;;;;;;;0.43;0.43;;;13.20;99.90;;;13.22;100.00;99836.59;5250944;28;20048;-80
2022/10/01 07:48:31;;;;;;;0.80;0.80;;;13.20;99.90;;;13.28;100.00;99836.66;5250439;28;20466;-82
2022/10/01 07:51:03;;;;;;;1.20;0.50;;;13.20;99.90;;;13.37;100.00;99840.25;5266385;28;20051;-81
2022/10/01 07:53:35;;;;;;;1.10;0.52;;;13.20;99.90;;;13.43;100.00;99846.41;5249466;28;20049;-81
2022/10/01 07:56:08;;;;;;;1.65;0.65;;;13.30;99.90;;;13.49;100.00;99835.09;5249773;28;20067;-82
2022/10/01 07:58:42;;;;;;;0.88;0.47;;;13.40;99.90;;;13.53;100.00;99837.75;5250568;28;20052;-81
2022/10/01 08:01:14;;;;;;;0.85;0.50;;;13.40;99.90;;;13.57;100.00;99833.41;5266260;28;20059;-81
2022/10/01 08:03:48;;;;;;;1.45;0.80;;;13.40;99.90;;;13.56;100.00;99837.78;5266785;28;20131;-81
2022/10/01 08:06:21;;;;;;;1.70;0.50;;;13.40;99.90;;;13.59;100.00;99842.16;5249336;28;20044;-81
2022/10/01 08:08:53;;;;;;;1.35;0.50;;;13.40;99.90;;;13.62;100.00;99847.41;5265853;28;20048;-81
2022/10/01 08:11:26;;;;;;;0.65;0.50;;;13.40;99.90;;;13.66;100.00;99849.19;5356488;22;20052;-80
2022/10/01 08:13:58;;;;;;;0.50;0.50;;;13.40;99.90;;;13.67;100.00;99845.69;5270883;28;20517;-81
2022/10/01 08:16:33;;;;;;;1.10;0.55;;;13.50;99.90;;;13.69;100.00;99846.59;5278119;28;20016;-81
2022/10/01 08:19:05;;;;;;;0.60;0.40;;;13.50;99.90;;;13.73;100.00;99848.38;5275321;28;20078;-80
2022/10/01 08:21:38;;;;;;;0.70;0.47;;;13.50;99.90;;;13.78;100.00;99851.03;5269372;28;20044;-81
2022/10/01 08:24:10;;;;;;;0.57;0.57;;;13.60;99.90;;;13.87;100.00;99850.19;5285941;28;20490;-81
2022/10/01 08:26:43;;;;;;;1.00;0.55;;;13.70;99.90;;;13.93;100.00;99855.47;5265104;28;20138;-81
2022/10/01 08:29:16;;;;;;;1.30;0.60;;;13.70;99.90;;;13.96;100.00;99856.38;5266962;28;20414;-82
2022/10/01 08:31:48;;;;;;;0.70;0.22;;;13.70;99.90;;;14.01;100.00;99862.50;5272350;28;20068;-81
2022/10/01 08:34:21;;;;;;;0.95;0.50;;;13.80;99.90;;;14.03;100.00;99863.41;5271878;28;20040;-81
2022/10/01 08:36:53;;;;;;;0.32;0.32;;;13.80;99.90;;;14.10;100.00;99864.31;5269729;28;20139;-81
2022/10/01 08:39:25;;;;;;;0.45;0.20;;;13.90;99.90;;;14.19;100.00;99858.25;5271208;28;20047;-81
2022/10/01 08:42:07;;;;;;;0.47;0.30;;;14.00;99.90;;;14.27;100.00;99870.50;5269935;28;20048;-81
2022/10/01 08:44:44;;;;;;;0.45;0.25;;;14.00;99.90;;;14.35;100.00;99863.59;5271786;28;20036;-81
2022/10/01 08:47:26;;;;;;;0.75;0.40;;;14.10;99.90;;;14.50;100.00;99862.81;5287516;28;20052;-82
2022/10/01 08:50:05;;;;;;;0.60;0.30;;;14.20;99.90;;;14.56;100.00;99870.69;5269320;28;20051;-82
2022/10/01 08:52:46;;;;;;;1.20;0.40;;;14.30;99.90;;;14.66;100.00;99879.47;5287235;28;20055;-82
2022/10/01 08:55:22;;;;;;;0.47;0.40;;;14.40;99.90;;;14.75;100.00;99874.28;5270434;28;20055;-82
2022/10/01 08:57:59;;;;;;;0.52;0.30;;;14.50;99.90;;;14.80;100.00;99876.88;5270194;28;20055;-81
2022/10/01 09:00:34;;;;;;;0.20;0.20;;;14.50;99.90;;;14.89;100.00;99875.19;5269943;28;20118;-81
2022/10/01 09:03:11;;;;;;;0.55;0.22;;;14.60;99.90;;;14.95;100.00;99881.31;5287320;28;20137;-82
2022/10/01 09:06:05;;;;;;;0.47;0.30;;;14.60;99.90;;;14.93;100.00;99879.56;5270000;28;20456;-81
2022/10/01 09:08:50;;;;;;;0.60;0.30;;;14.70;99.90;;;14.97;100.00;99890.06;5269535;28;20532;-81
2022/10/01 09:11:39;;;;;;;0.43;0.28;;;14.70;99.90;;;14.94;100.00;99890.94;5270814;28;20042;-82
2022/10/01 09:14:41;;;;;;;0.65;0.20;;;14.70;99.90;;;14.90;100.00;99894.41;5270249;28;20086;-82
2022/10/01 09:17:23;;;;;;;0.30;0.30;;;14.70;99.90;;;14.89;100.00;99892.66;5271350;28;20048;-82
2022/10/01 09:20:06;;;;;;;0.40;0.40;;;14.70;99.90;;;14.89;100.00;99887.44;5272229;28;20044;-82
2022/10/01 09:22:40;;;;;;;0.93;0.50;;;14.70;99.90;;;14.91;100.00;99899.66;5272161;28;20517;-80
2022/10/01 09:25:19;;;;;;;0.85;0.20;;;14.70;99.90;;;14.91;100.00;99897.03;5272759;28;20047;-82
2022/10/01 09:27:52;;;;;;;1.00;0.22;;;14.70;99.90;;;14.88;100.00;99899.66;5270852;28;20052;-82
2022/10/01 09:30:25;;;;;;;0.73;0.28;;;14.70;99.90;;;14.89;100.00;99904.03;5271917;28;20040;-82
2022/10/01 09:33:04;;;;;;;0.55;0.20;;;14.70;99.90;;;14.90;100.00;99915.41;5270837;28;20105;-82
2022/10/01 09:35:44;;;;;;;1.25;0.40;;;14.70;99.90;;;14.93;100.00;99918.94;5271048;28;20054;-84
2022/10/01 09:38:22;;;;;;;0.82;0.32;;;14.70;99.90;;;14.95;100.00;99918.94;5270763;28;20056;-83
2022/10/01 09:40:57;;;;;;;2.00;0.88;;;14.80;99.90;;;15.02;100.00;99920.69;5270375;28;20413;-82
2022/10/01 09:43:31;;;;;;;0.50;0.40;;;14.70;99.90;;;15.12;100.00;99921.59;5287149;28;20052;-82
2022/10/01 09:46:12;;;;;;;0.65;0.30;;;14.80;99.90;;;15.23;100.00;99929.50;5287162;28;20058;-83
2022/10/01 09:48:51;;;;;;;1.30;0.50;;;14.90;99.90;;;15.28;100.00;99928.63;5287367;28;20048;-83
2022/10/01 09:51:30;;;;;;;0.50;0.40;;;15.00;99.90;;;15.31;100.00;99925.13;5270925;28;20044;-83
2022/10/01 09:54:09;;;;;;;1.58;0.43;;;15.00;99.90;;;15.33;100.00;99921.66;5276153;28;20024;-84
2022/10/01 09:56:48;;;;;;;1.83;0.28;;;15.10;99.90;;;15.35;100.00;99927.78;5276431;28;20054;-84
2022/10/01 09:59:28;;;;;;;3.15;0.55;;;15.10;99.90;;;15.44;100.00;99929.53;5286167;28;20048;-82
2022/10/01 10:02:04;;;;;;;1.10;0.40;;;15.10;99.90;;;15.51;100.00;99940.91;5271186;28;20069;-82
2022/10/01 10:04:36;;;;;;;1.95;0.30;;;15.20;99.90;;;15.56;100.00;99932.16;5270327;28;20052;-82
2022/10/01 10:07:16;;;;;;;0.95;0.40;;;15.30;99.90;;;15.65;100.00;99932.22;5270333;28;20055;-83
2022/10/01 10:09:48;;;;;;;1.55;0.47;;;15.30;99.90;;;15.93;100.00;99940.97;5271173;28;20040;-83
2022/10/01 10:12:29;;;;;;;1.27;0.70;;;15.50;99.90;;;16.25;100.00;99933.06;5270165;28;20040;-84
2022/10/01 10:15:09;;;;;;;1.48;0.98;;;15.80;99.90;;;16.39;100.00;99940.03;5286778;28;20464;-83
2022/10/01 10:17:45;;;;;;;0.30;0.30;;;16.00;99.90;;;16.42;100.00;99940.88;5269657;28;20051;-82
2022/10/01 10:20:29;;;;;;;0.60;0.57;;;16.00;99.90;;;16.41;100.00;99939.16;5270891;28;20054;-81
2022/10/01 10:23:11;;;;;;;0.40;0.40;;;16.10;99.90;;;16.56;100.00;99951.38;5273477;28;20048;-84
2022/10/01 10:25:44;;;;;;;2.75;0.50;;;16.20;99.90;;;16.67;100.00;99956.59;5276521;28;20047;-83
2022/10/01 10:28:22;;;;;;;2.33;0.90;;;16.30;99.90;;;16.72;100.00;99949.63;5275617;28;20101;-82
2022/10/01 10:30:56;;;;;;;5.97;1.10;;;16.30;99.90;;;16.81;100.00;99946.94;5298316;28;20524;-82
2022/10/01 10:33:29;;;;;;;1.67;0.85;;;16.40;99.90;;;16.91;100.00;99937.25;5290800;28;20059;-83
2022/10/01 10:36:05;;;;;;;2.75;2.05;;;16.50;99.90;;;16.98;100.00;99947.75;5273995;28;20056;-82
2022/10/01 10:38:38;;;;;;;4.18;1.58;;;16.50;99.90;;;17.21;100.00;99955.53;5274196;28;20070;-83
2022/10/01 10:41:18;;;;;;;4.20;1.63;;;16.70;99.90;;;17.52;100.00;99956.22;5273145;28;20051;-84
2022/10/01 10:43:50;;;;;;;5.95;1.63;;;17.00;99.90;;;17.71;100.00;99959.63;5272860;28;20071;-83
2022/10/01 10:46:30;;;;;;;5.00;1.50;;;17.20;99.90;;;17.96;100.00;99962.94;5290778;28;20138;-82
2022/10/01 10:49:09;;;;;;;3.22;1.63;;;17.40;99.90;;;18.11;100.00;99964.56;5287141;28;20056;-84
2022/10/01 10:51:50;;;;;;;2.28;1.10;;;17.60;99.90;;;18.07;100.00;99976.06;5272528;28;20047;-83